createdAt,value
2018-11-14T00:01:03.703Z,9.40
2018-11-14T00:03:38.970Z,9.40
2018-11-14T00:06:13.767Z,9.40
2018-11-14T00:08:48.563Z,9.40
2018-11-14T00:11:24.006Z,9.40
2018-11-14T00:13:58.746Z,9.30
2018-11-14T00:16:33.881Z,9.30
2018-11-14T00:19:08.910Z,9.30
2018-11-14T00:21:44.559Z,9.30
2018-11-14T00:24:19.528Z,9.30
2018-11-14T00:26:54.607Z,9.30
2018-11-14T00:29:30.196Z,9.20
2018-11-14T00:32:04.969Z,9.20
2018-11-14T00:34:40.048Z,9.20
2018-11-14T00:37:15.186Z,9.20
2018-11-14T00:39:50.296Z,9.20
2018-11-14T00:42:26.453Z,9.20
2018-11-14T00:45:01.336Z,9.20
2018-11-14T00:47:36.176Z,9.30
2018-11-14T00:50:13.236Z,9.20
2018-11-14T00:52:48.149Z,9.20
2018-11-14T00:55:23.219Z,9.30
2018-11-14T00:57:58.187Z,9.30
2018-11-14T01:00:34.372Z,9.30
2018-11-14T01:03:09.030Z,9.30
2018-11-14T01:05:44.198Z,9.30
2018-11-14T01:08:19.219Z,9.30
2018-11-14T01:10:54.280Z,9.30
2018-11-14T01:13:29.031Z,9.30
2018-11-14T01:16:04.108Z,9.30
2018-11-14T01:18:39.455Z,9.30
2018-11-14T01:21:14.416Z,9.30
2018-11-14T01:23:49.142Z,9.30
2018-11-14T01:26:24.352Z,9.30
2018-11-14T01:28:59.362Z,9.30
2018-11-14T01:31:34.781Z,9.20
2018-11-14T01:34:09.823Z,9.20
2018-11-14T01:36:45.447Z,9.20
2018-11-14T01:39:20.217Z,9.20
2018-11-14T01:41:55.871Z,9.20
2018-11-14T01:44:30.683Z,9.20
2018-11-14T01:47:05.980Z,9.20
2018-11-14T01:49:40.675Z,9.10
2018-11-14T01:52:15.641Z,9.10
2018-11-14T01:54:50.571Z,9.10
2018-11-14T01:57:25.869Z,9.10
2018-11-14T02:00:00.748Z,9.10
2018-11-14T02:02:35.790Z,9.10
2018-11-14T02:05:11.400Z,9.00
2018-11-14T02:07:46.047Z,9.00
2018-11-14T02:10:21.761Z,9.00
2018-11-14T02:12:56.674Z,9.00
2018-11-14T02:15:31.347Z,9.00
2018-11-14T02:18:06.819Z,8.90
2018-11-14T02:20:42.010Z,8.90
2018-11-14T02:23:17.020Z,8.90
2018-11-14T02:25:52.118Z,8.90
2018-11-14T02:28:27.005Z,8.90
2018-11-14T02:31:01.808Z,8.90
2018-11-14T02:33:36.910Z,8.90
2018-11-14T02:36:11.689Z,8.90
2018-11-14T02:38:46.647Z,8.90
2018-11-14T02:41:21.486Z,8.90
2018-11-14T02:43:56.291Z,8.90
2018-11-14T02:46:31.442Z,8.80
2018-11-14T02:49:06.495Z,8.80
2018-11-14T02:51:41.635Z,8.80
2018-11-14T02:54:16.687Z,8.80
2018-11-14T02:56:51.987Z,8.80
2018-11-14T02:59:27.364Z,8.80
2018-11-14T03:02:02.201Z,8.80
2018-11-14T03:04:37.203Z,8.80
2018-11-14T03:07:12.055Z,8.80
2018-11-14T03:09:47.000Z,8.80
2018-11-14T03:12:22.014Z,8.80
2018-11-14T03:14:57.026Z,8.80
2018-11-14T03:17:31.807Z,8.70
2018-11-14T03:20:11.058Z,8.70
2018-11-14T03:22:45.682Z,8.70
2018-11-14T03:25:20.764Z,8.70
2018-11-14T03:27:55.835Z,8.70
2018-11-14T03:30:31.117Z,8.70
2018-11-14T03:33:06.056Z,8.70
2018-11-14T03:35:46.320Z,8.70
2018-11-14T03:38:21.405Z,8.70
2018-11-14T03:40:56.360Z,8.70
2018-11-14T03:43:31.451Z,8.60
2018-11-14T03:46:06.856Z,8.60
2018-11-14T03:48:42.418Z,8.60
2018-11-14T03:51:17.168Z,8.60
2018-11-14T03:53:52.171Z,8.60
2018-11-14T03:56:27.181Z,8.60
2018-11-14T03:59:02.450Z,8.60
2018-11-14T04:01:37.648Z,8.60
2018-11-14T04:04:12.688Z,8.60
2018-11-14T04:06:47.493Z,8.50
2018-11-14T04:09:22.450Z,8.50
2018-11-14T04:11:57.465Z,8.50
2018-11-14T04:14:32.503Z,8.50
2018-11-14T04:17:07.549Z,8.50
2018-11-14T04:19:42.835Z,8.50
2018-11-14T04:22:18.223Z,8.50
2018-11-14T04:24:53.307Z,8.50
2018-11-14T04:27:28.518Z,8.50
2018-11-14T04:30:04.079Z,8.50
2018-11-14T04:32:39.159Z,8.40
2018-11-14T04:35:15.400Z,8.40
2018-11-14T04:37:50.370Z,8.40
2018-11-14T04:40:25.870Z,8.40
2018-11-14T04:43:00.813Z,8.40
2018-11-14T04:45:35.918Z,8.40
2018-11-14T04:48:11.454Z,8.40
2018-11-14T04:50:47.065Z,8.40
2018-11-14T04:53:22.465Z,8.40
2018-11-14T04:55:57.559Z,8.40
2018-11-14T04:58:32.498Z,8.30
2018-11-14T05:01:07.856Z,8.30
2018-11-14T05:03:43.473Z,8.30
2018-11-14T05:06:12.862Z,8.30
2018-11-14T05:08:42.805Z,8.30
2018-11-14T05:11:12.907Z,8.30
2018-11-14T05:13:42.480Z,8.30
2018-11-14T05:16:12.459Z,8.20
2018-11-14T05:18:41.982Z,8.30
2018-11-14T05:21:11.759Z,8.30
2018-11-14T05:23:41.255Z,8.30
2018-11-14T05:26:10.784Z,8.30
2018-11-14T05:28:40.502Z,8.30
2018-11-14T05:31:09.880Z,8.20
2018-11-14T05:33:39.425Z,8.20
2018-11-14T05:36:08.780Z,8.20
2018-11-14T05:38:39.147Z,8.20
2018-11-14T05:41:08.751Z,8.20
2018-11-14T05:43:38.364Z,8.20
2018-11-14T05:46:07.851Z,8.20
2018-11-14T05:48:37.449Z,8.20
2018-11-14T05:51:06.911Z,8.20
2018-11-14T05:53:36.524Z,8.20
2018-11-14T05:56:06.176Z,8.20
2018-11-14T05:58:36.118Z,8.20
2018-11-14T06:01:06.095Z,8.20
2018-11-14T06:03:35.243Z,8.20
2018-11-14T06:06:05.430Z,8.20
2018-11-14T06:08:35.017Z,8.20
2018-11-14T06:11:04.938Z,8.20
2018-11-14T06:13:34.321Z,8.20
2018-11-14T06:16:04.175Z,8.20
2018-11-14T06:18:33.497Z,8.10
2018-11-14T06:21:03.362Z,8.20
2018-11-14T06:23:32.656Z,8.30
2018-11-14T06:26:02.127Z,8.20
2018-11-14T06:28:31.484Z,8.20
2018-11-14T06:31:00.797Z,8.10
2018-11-14T06:33:30.135Z,8.10
2018-11-14T06:35:59.613Z,8.10
2018-11-14T06:38:29.126Z,8.10
2018-11-14T06:40:59.550Z,8.10
2018-11-14T06:43:29.508Z,8.10
2018-11-14T06:45:58.790Z,8.10
2018-11-14T06:48:33.629Z,8.00
2018-11-14T06:51:08.389Z,8.00
2018-11-14T06:53:37.925Z,8.00
2018-11-14T06:56:07.327Z,8.10
2018-11-14T06:58:37.083Z,8.00
2018-11-14T07:01:06.593Z,8.00
2018-11-14T07:03:41.611Z,8.00
2018-11-14T07:06:18.114Z,8.00
2018-11-14T07:08:53.006Z,8.00
2018-11-14T07:11:28.123Z,8.00
2018-11-14T07:14:03.114Z,8.00
2018-11-14T07:16:38.413Z,8.00
2018-11-14T07:19:13.062Z,8.10
2018-11-14T07:21:48.674Z,8.10
2018-11-14T07:24:23.615Z,8.20
2018-11-14T07:26:59.214Z,8.20
2018-11-14T07:29:34.418Z,8.20
2018-11-14T07:32:05.961Z,8.30
2018-11-14T07:34:41.246Z,8.30
2018-11-14T07:37:16.297Z,8.30
2018-11-14T07:39:51.400Z,8.30
2018-11-14T07:42:26.401Z,8.30
2018-11-14T07:45:02.190Z,8.40
2018-11-14T07:47:32.357Z,8.40
2018-11-14T07:50:01.960Z,8.40
2018-11-14T07:52:31.348Z,8.50
2018-11-14T07:55:00.928Z,8.50
2018-11-14T07:57:30.268Z,8.50
2018-11-14T07:59:59.687Z,8.50
2018-11-14T08:02:28.971Z,8.50
2018-11-14T08:04:58.376Z,8.60
2018-11-14T08:07:27.975Z,8.50
2018-11-14T08:09:57.503Z,8.60
2018-11-14T08:12:27.402Z,8.60
2018-11-14T08:14:57.539Z,8.60
2018-11-14T08:17:26.979Z,8.70
2018-11-14T08:19:57.060Z,8.70
2018-11-14T08:22:26.960Z,8.70
2018-11-14T08:24:56.717Z,8.70
2018-11-14T08:27:26.400Z,8.80
2018-11-14T08:29:55.555Z,8.80
2018-11-14T08:32:25.386Z,8.80
2018-11-14T08:34:54.780Z,8.80
2018-11-14T08:37:24.255Z,8.90
2018-11-14T08:39:54.644Z,8.90
2018-11-14T08:42:24.274Z,8.80
2018-11-14T08:44:54.073Z,8.90
2018-11-14T08:47:23.441Z,8.90
2018-11-14T08:49:53.563Z,8.90
2018-11-14T08:52:23.311Z,8.90
2018-11-14T08:54:54.055Z,9.00
2018-11-14T08:57:23.622Z,9.00
2018-11-14T08:59:58.512Z,9.00
2018-11-14T09:02:33.526Z,9.00
2018-11-14T09:05:09.658Z,9.10
2018-11-14T09:07:45.116Z,9.10
2018-11-14T09:10:21.597Z,9.10
2018-11-14T09:12:56.448Z,9.20
2018-11-14T09:15:35.026Z,9.20
2018-11-14T09:18:10.198Z,9.20
2018-11-14T09:20:45.595Z,9.20
2018-11-14T09:23:20.662Z,9.30
2018-11-14T09:25:56.392Z,9.30
2018-11-14T09:28:31.419Z,9.30
2018-11-14T09:31:06.451Z,9.30
2018-11-14T09:33:41.417Z,9.40
2018-11-14T09:36:17.382Z,9.40
2018-11-14T09:38:52.536Z,9.40
2018-11-14T09:41:27.517Z,9.50
2018-11-14T09:44:02.500Z,9.50
2018-11-14T09:46:37.527Z,9.60
2018-11-14T09:49:12.770Z,9.60
2018-11-14T09:51:48.663Z,9.60
2018-11-14T09:54:23.663Z,9.60
2018-11-14T09:56:58.795Z,9.70
2018-11-14T09:59:33.775Z,9.70
2018-11-14T10:02:08.724Z,9.70
2018-11-14T10:04:43.868Z,9.70
2018-11-14T10:07:18.563Z,9.70
2018-11-14T10:09:53.655Z,9.80
2018-11-14T10:12:28.962Z,9.80
2018-11-14T10:15:04.268Z,9.90
2018-11-14T10:17:39.130Z,9.90
2018-11-14T10:20:19.483Z,9.90
2018-11-14T10:22:54.754Z,9.90
2018-11-14T10:25:29.784Z,9.90
2018-11-14T10:28:05.602Z,10.00
2018-11-14T10:30:40.323Z,10.00
2018-11-14T10:33:15.322Z,10.00
2018-11-14T10:35:50.182Z,10.00
2018-11-14T10:38:24.917Z,10.00
2018-11-14T10:40:59.629Z,10.10
2018-11-14T10:43:34.780Z,9.60
2018-11-14T10:46:09.975Z,10.10
2018-11-14T10:48:45.222Z,10.20
2018-11-14T10:51:20.205Z,10.20
2018-11-14T10:53:55.345Z,10.30
2018-11-14T10:56:30.142Z,10.30
2018-11-14T10:59:05.532Z,10.40
2018-11-14T11:01:45.740Z,10.40
2018-11-14T11:04:25.971Z,10.40
2018-11-14T11:07:06.213Z,10.50
2018-11-14T11:09:46.600Z,10.50
2018-11-14T11:12:26.851Z,10.60
2018-11-14T11:15:07.065Z,10.70
2018-11-14T11:17:47.162Z,10.70
2018-11-14T11:20:21.916Z,10.80
2018-11-14T11:22:56.731Z,10.80
2018-11-14T11:25:31.792Z,10.90
2018-11-14T11:28:06.734Z,11.00
2018-11-14T11:30:41.638Z,11.00
2018-11-14T11:33:16.892Z,11.10
2018-11-14T11:35:51.876Z,11.10
2018-11-14T11:38:27.141Z,11.20
2018-11-14T11:41:02.110Z,11.20
2018-11-14T11:43:37.440Z,11.30
2018-11-14T11:46:12.780Z,11.30
2018-11-14T11:48:47.785Z,11.30
2018-11-14T11:51:22.951Z,11.30
2018-11-14T11:53:57.834Z,11.40
2018-11-14T11:56:33.120Z,11.40
2018-11-14T11:59:08.763Z,11.50
2018-11-14T12:01:43.907Z,11.50
2018-11-14T12:04:18.960Z,11.50
2018-11-14T12:06:53.958Z,11.50
2018-11-14T12:09:28.906Z,11.50
2018-11-14T12:12:04.365Z,11.50
2018-11-14T12:14:39.073Z,11.50
2018-11-14T12:17:14.536Z,11.60
2018-11-14T12:19:49.594Z,11.60
2018-11-14T12:22:24.689Z,11.70
2018-11-14T12:24:59.612Z,11.70
2018-11-14T12:27:35.131Z,11.80
2018-11-14T12:30:13.941Z,11.80
2018-11-14T12:32:48.971Z,11.80
2018-11-14T12:35:24.366Z,11.80
2018-11-14T12:37:59.257Z,11.90
2018-11-14T12:40:35.044Z,11.80
2018-11-14T12:43:10.420Z,11.80
2018-11-14T12:45:45.715Z,11.80
2018-11-14T12:48:20.640Z,11.80
2018-11-14T12:50:55.530Z,11.80
2018-11-14T12:53:30.683Z,11.70
2018-11-14T12:56:05.661Z,11.70
2018-11-14T12:58:40.633Z,11.70
2018-11-14T13:01:17.037Z,11.80
2018-11-14T13:03:52.427Z,11.70
2018-11-14T13:06:27.709Z,11.80
2018-11-14T13:09:02.886Z,11.80
2018-11-14T13:11:39.264Z,11.70
2018-11-14T13:14:15.222Z,11.70
2018-11-14T13:16:50.574Z,11.80
2018-11-14T13:19:25.764Z,11.80
2018-11-14T13:22:01.099Z,11.80
2018-11-14T13:24:36.188Z,11.80
2018-11-14T13:27:11.544Z,11.80
2018-11-14T13:29:46.833Z,11.90
2018-11-14T13:32:22.146Z,11.90
2018-11-14T13:34:57.407Z,11.90
2018-11-14T13:37:32.428Z,11.90
2018-11-14T13:40:08.953Z,11.90
2018-11-14T13:42:44.443Z,11.90
2018-11-14T13:45:20.037Z,12.00
2018-11-14T13:47:55.987Z,12.00
2018-11-14T13:50:30.948Z,12.00
2018-11-14T13:53:06.169Z,12.00
2018-11-14T13:55:43.138Z,12.00
2018-11-14T13:58:18.362Z,12.00
2018-11-14T14:00:53.424Z,12.00
2018-11-14T14:03:28.614Z,12.10
2018-11-14T14:06:04.254Z,12.00
2018-11-14T14:08:39.508Z,12.10
2018-11-14T14:11:14.871Z,12.10
2018-11-14T14:13:55.341Z,12.10
2018-11-14T14:16:31.427Z,12.10
2018-11-14T14:19:06.890Z,12.10
2018-11-14T14:21:42.193Z,12.10
2018-11-14T14:24:17.425Z,12.20
2018-11-14T14:26:53.096Z,12.10
2018-11-14T14:29:28.346Z,12.10
2018-11-14T14:32:03.916Z,12.10
2018-11-14T14:34:39.627Z,12.10
2018-11-14T14:37:15.818Z,12.10
2018-11-14T14:39:51.087Z,12.10
2018-11-14T14:42:26.149Z,12.20
2018-11-14T14:45:01.741Z,12.10
2018-11-14T14:47:37.074Z,12.10
2018-11-14T14:50:14.236Z,12.20
2018-11-14T14:52:49.217Z,12.10
2018-11-14T14:55:25.089Z,12.10
2018-11-14T14:57:59.953Z,12.10
2018-11-14T15:00:34.827Z,12.10
2018-11-14T15:03:09.574Z,12.10
2018-11-14T15:05:44.599Z,12.00
2018-11-14T15:08:19.947Z,12.10
2018-11-14T15:10:55.086Z,12.10
2018-11-14T15:13:29.992Z,12.00
2018-11-14T15:16:05.911Z,12.00
2018-11-14T15:18:41.192Z,11.90
2018-11-14T15:21:16.900Z,11.90
2018-11-14T15:23:51.964Z,11.90
2018-11-14T15:26:27.199Z,11.80
2018-11-14T15:29:02.849Z,11.80
2018-11-14T15:31:37.862Z,11.70
2018-11-14T15:34:13.010Z,11.70
2018-11-14T15:36:48.461Z,11.70
2018-11-14T15:39:23.552Z,11.60
2018-11-14T15:41:58.782Z,11.60
2018-11-14T15:44:34.477Z,11.50
2018-11-14T15:47:09.509Z,11.50
2018-11-14T15:49:44.777Z,11.40
2018-11-14T15:52:20.190Z,11.50
2018-11-14T15:54:55.364Z,11.30
2018-11-14T15:57:30.829Z,11.40
2018-11-14T16:00:09.321Z,11.40
2018-11-14T16:02:44.416Z,11.30
2018-11-14T16:05:21.169Z,11.30
2018-11-14T16:07:57.729Z,11.20
2018-11-14T16:10:33.306Z,11.20
2018-11-14T16:13:08.469Z,11.20
2018-11-14T16:15:43.482Z,11.10
2018-11-14T16:18:18.597Z,11.10
2018-11-14T16:20:53.541Z,11.10
2018-11-14T16:23:28.587Z,11.00
2018-11-14T16:26:03.897Z,11.00
2018-11-14T16:28:38.778Z,11.00
2018-11-14T16:31:13.687Z,11.00
2018-11-14T16:33:48.830Z,11.00
2018-11-14T16:36:23.750Z,11.00
2018-11-14T16:39:21.309Z,11.00
2018-11-14T16:41:56.694Z,11.00
2018-11-14T16:44:31.659Z,11.00
2018-11-14T16:47:07.284Z,11.00
2018-11-14T16:49:42.386Z,11.00
2018-11-14T16:52:17.635Z,10.90
2018-11-14T16:54:52.699Z,10.90
2018-11-14T16:57:27.939Z,10.90
2018-11-14T17:00:02.894Z,10.90
2018-11-14T17:02:38.101Z,10.90
2018-11-14T17:05:13.653Z,10.80
2018-11-14T17:07:48.596Z,10.80
2018-11-14T17:10:23.769Z,10.80
2018-11-14T17:12:59.573Z,10.80
2018-11-14T17:15:34.533Z,10.80
2018-11-14T17:18:09.743Z,10.80
2018-11-14T17:20:44.793Z,10.70
2018-11-14T17:23:19.721Z,10.70
2018-11-14T17:25:55.033Z,10.70
2018-11-14T17:28:30.085Z,10.70
2018-11-14T17:31:05.898Z,10.70
2018-11-14T17:33:40.638Z,10.60
2018-11-14T17:36:16.015Z,10.70
2018-11-14T17:38:51.070Z,10.60
2018-11-14T17:41:26.474Z,10.60
2018-11-14T17:44:01.955Z,10.60
2018-11-14T17:46:36.841Z,10.60
2018-11-14T17:49:12.179Z,10.60
2018-11-14T17:51:46.903Z,10.60
2018-11-14T17:54:21.999Z,10.50
2018-11-14T17:56:57.263Z,10.50
2018-11-14T17:59:34.065Z,10.50
2018-11-14T18:02:09.287Z,10.50
2018-11-14T18:04:44.090Z,10.40
2018-11-14T18:07:19.139Z,10.40
2018-11-14T18:09:54.784Z,10.40
2018-11-14T18:12:29.861Z,10.40
2018-11-14T18:15:05.716Z,10.30
2018-11-14T18:17:40.861Z,10.30
2018-11-14T18:20:22.398Z,10.30
2018-11-14T18:22:57.855Z,10.30
2018-11-14T18:25:33.065Z,10.30
2018-11-14T18:28:07.977Z,10.30
2018-11-14T18:30:43.242Z,10.30
2018-11-14T18:33:18.601Z,10.30
2018-11-14T18:35:53.966Z,10.20
2018-11-14T18:38:29.003Z,10.20
2018-11-14T18:41:04.016Z,10.20
2018-11-14T18:43:38.993Z,10.20
2018-11-14T18:46:14.183Z,10.20
2018-11-14T18:48:49.203Z,10.20
2018-11-14T18:51:24.447Z,10.20
2018-11-14T18:53:59.803Z,10.10
2018-11-14T18:56:34.937Z,10.10
2018-11-14T18:59:10.793Z,10.10
2018-11-14T19:01:45.954Z,10.10
2018-11-14T19:04:21.448Z,9.70
2018-11-14T19:06:57.404Z,10.00
2018-11-14T19:09:34.238Z,10.00
2018-11-14T19:12:10.369Z,10.00
2018-11-14T19:14:46.071Z,10.00
2018-11-14T19:17:21.281Z,10.00
2018-11-14T19:19:56.733Z,9.90
2018-11-14T19:22:31.868Z,9.90
2018-11-14T19:25:08.534Z,9.90
2018-11-14T19:27:44.761Z,9.90
2018-11-14T19:30:21.827Z,9.80
2018-11-14T19:32:58.605Z,9.80
2018-11-14T19:35:33.983Z,9.80
2018-11-14T19:38:09.134Z,9.80
2018-11-14T19:40:44.434Z,9.80
2018-11-14T19:43:20.111Z,9.70
2018-11-14T19:45:55.664Z,9.70
2018-11-14T19:48:30.710Z,9.70
2018-11-14T19:51:07.461Z,9.70
2018-11-14T19:53:42.696Z,9.60
2018-11-14T19:56:18.018Z,9.60
2018-11-14T19:58:53.160Z,9.60
2018-11-14T20:01:28.310Z,9.60
2018-11-14T20:04:03.815Z,9.60
2018-11-14T20:06:40.543Z,9.60
2018-11-14T20:09:11.288Z,9.50
2018-11-14T20:11:41.073Z,9.50
2018-11-14T20:14:10.811Z,9.50
2018-11-14T20:16:40.475Z,9.40
2018-11-14T20:19:10.067Z,9.40
2018-11-14T20:21:39.533Z,9.40
2018-11-14T20:24:09.032Z,9.40
2018-11-14T20:26:38.392Z,9.40
2018-11-14T20:29:07.965Z,9.40
2018-11-14T20:31:37.520Z,9.40
2018-11-14T20:34:08.354Z,9.30
2018-11-14T20:36:37.925Z,9.20
2018-11-14T20:39:12.239Z,9.20
2018-11-14T20:41:42.071Z,9.20
2018-11-14T20:44:11.747Z,9.20
2018-11-14T20:46:41.290Z,9.20
2018-11-14T20:49:10.891Z,9.10
2018-11-14T20:51:40.273Z,9.10
2018-11-14T20:54:10.174Z,9.10
2018-11-14T20:56:41.175Z,9.00
2018-11-14T20:59:10.833Z,9.00
2018-11-14T21:01:40.518Z,9.00
2018-11-14T21:04:10.200Z,9.00
2018-11-14T21:06:40.018Z,8.90
2018-11-14T21:09:10.949Z,8.90
2018-11-14T21:11:40.355Z,8.90
2018-11-14T21:14:10.134Z,8.90
2018-11-14T21:16:39.597Z,8.90
2018-11-14T21:19:09.328Z,8.90
2018-11-14T21:21:38.657Z,8.80
2018-11-14T21:24:08.074Z,8.80
2018-11-14T21:26:37.344Z,8.80
2018-11-14T21:29:06.910Z,8.80
2018-11-14T21:31:42.184Z,8.80
2018-11-14T21:34:17.486Z,8.70
2018-11-14T21:36:52.717Z,8.70
2018-11-14T21:39:27.600Z,8.60
2018-11-14T21:42:03.336Z,8.60
2018-11-14T21:44:38.266Z,8.60
2018-11-14T21:47:13.245Z,8.60
2018-11-14T21:49:42.904Z,8.60
2018-11-14T21:52:12.191Z,8.60
2018-11-14T21:54:47.194Z,8.50
2018-11-14T21:57:22.332Z,8.50
2018-11-14T21:59:57.632Z,8.50
2018-11-14T22:02:32.900Z,8.50
2018-11-14T22:05:08.847Z,8.50
2018-11-14T22:07:44.183Z,8.50
2018-11-14T22:10:20.566Z,8.50
2018-11-14T22:12:55.546Z,8.40
2018-11-14T22:15:31.263Z,8.40
2018-11-14T22:18:06.455Z,8.40
2018-11-14T22:20:42.280Z,8.40
2018-11-14T22:23:17.122Z,8.40
2018-11-14T22:25:52.262Z,8.30
2018-11-14T22:28:27.149Z,8.30
2018-11-14T22:31:02.363Z,8.30
2018-11-14T22:33:37.215Z,8.00
2018-11-14T22:36:12.751Z,8.20
2018-11-14T22:38:47.673Z,8.20
2018-11-14T22:41:22.694Z,8.20
2018-11-14T22:43:57.800Z,8.20
2018-11-14T22:46:32.991Z,8.20
2018-11-14T22:49:08.068Z,8.20
2018-11-14T22:51:43.526Z,8.20
2018-11-14T22:54:18.794Z,8.20
2018-11-14T22:56:53.800Z,8.20
2018-11-14T23:02:04.028Z,8.20
2018-11-14T23:04:39.015Z,8.10
2018-11-14T23:07:13.894Z,8.10
2018-11-14T23:09:49.182Z,8.10
2018-11-14T23:12:24.463Z,8.10
2018-11-14T23:14:59.396Z,8.10
2018-11-14T23:17:34.603Z,8.10
2018-11-14T23:20:12.248Z,8.10
2018-11-14T23:22:47.838Z,8.10
2018-11-14T23:25:22.948Z,8.10
2018-11-14T23:27:57.797Z,8.10
2018-11-14T23:30:29.483Z,8.10
2018-11-14T23:33:04.718Z,8.10
2018-11-14T23:35:39.550Z,8.10
2018-11-14T23:38:14.833Z,8.10
2018-11-14T23:40:49.654Z,8.10
2018-11-14T23:43:24.692Z,8.10
2018-11-14T23:45:59.646Z,8.10
2018-11-14T23:48:34.474Z,8.10
2018-11-14T23:51:09.373Z,8.10
2018-11-14T23:53:44.241Z,8.10
2018-11-14T23:56:19.245Z,8.10
2018-11-14T23:58:54.064Z,8.10
